Time;durP1;ratioP1;P1;durP2;ratioP2;P2;SDS_P1;SDS_P2;PMS_P1;PMS_P2;Temp;Humidity;BMP_temperature;BMP_pressure;BME280_temperature;BME280_humidity;BME280_pressure;Samples;Min_cycle;Max_cycle;Signal;HPM_P1;HPM_P2
2022/03/15 00:02:01;;;;;;;20.05;10.75;;;11.80;93.80;;;;;;5013715;28;20366;-77
2022/03/15 00:04:27;;;;;;;21.55;11.07;;;11.90;93.70;;;;;;5013771;28;20383;-77
2022/03/15 00:06:53;;;;;;;23.55;11.57;;;11.90;93.60;;;;;;5013430;28;20400;-77
2022/03/15 00:09:18;;;;;;;22.05;10.85;;;11.90;93.50;;;;;;5013430;28;20057;-77
2022/03/15 00:11:44;;;;;;;23.08;10.38;;;11.90;93.50;;;;;;5013174;28;20042;-77
2022/03/15 00:14:14;;;;;;;19.77;10.05;;;11.90;93.40;;;;;;5013734;28;20054;-77
2022/03/15 00:16:40;;;;;;;21.60;11.05;;;12.00;93.30;;;;;;5013280;28;20042;-77
2022/03/15 00:19:06;;;;;;;23.60;11.63;;;12.00;93.20;;;;;;5012869;28;20462;-77
2022/03/15 00:21:32;;;;;;;18.02;10.93;;;12.00;93.10;;;;;;5013359;28;20034;-77
2022/03/15 00:24:00;;;;;;;18.17;10.25;;;12.10;93.10;;;;;;5011867;28;20389;-77
2022/03/15 00:26:28;;;;;;;22.23;11.35;;;12.10;93.00;;;;;;5012829;28;20470;-77
2022/03/15 00:28:53;;;;;;;21.70;11.32;;;12.10;92.90;;;;;;5013334;28;20389;-77
2022/03/15 00:31:19;;;;;;;23.98;11.55;;;12.00;92.90;;;;;;5012843;28;20038;-77
2022/03/15 00:33:45;;;;;;;24.63;11.98;;;12.00;92.90;;;;;;5011774;28;20049;-77
2022/03/15 00:36:11;;;;;;;21.75;11.15;;;12.00;92.90;;;;;;5013198;28;20123;-77
2022/03/15 00:38:37;;;;;;;25.33;12.23;;;12.00;92.90;;;;;;5012484;28;20458;-77
2022/03/15 00:41:03;;;;;;;22.23;11.10;;;12.00;93.10;;;;;;5012979;28;20109;-77
2022/03/15 00:43:29;;;;;;;21.95;12.68;;;12.00;93.00;;;;;;5012760;28;20057;-77
2022/03/15 00:45:55;;;;;;;20.27;11.05;;;11.90;93.00;;;;;;5013232;28;20444;-77
2022/03/15 00:48:21;;;;;;;19.02;10.90;;;11.90;93.00;;;;;;5013043;28;20533;-77
2022/03/15 00:50:47;;;;;;;19.90;10.80;;;11.90;93.10;;;;;;5012979;28;20528;-77
2022/03/15 00:53:12;;;;;;;26.00;12.15;;;11.90;93.00;;;;;;5013225;28;20030;-77
2022/03/15 00:55:38;;;;;;;23.15;12.15;;;11.90;93.00;;;;;;5011955;28;20487;-77
2022/03/15 00:58:05;;;;;;;25.70;12.57;;;11.90;93.00;;;;;;5012912;28;20028;-77
2022/03/15 01:00:31;;;;;;;19.23;10.93;;;11.90;93.10;;;;;;5012446;28;20026;-77
2022/03/15 01:02:58;;;;;;;24.80;11.93;;;11.90;93.10;;;;;;5012083;28;20022;-77
2022/03/15 01:05:23;;;;;;;25.35;12.32;;;11.80;93.00;;;;;;5012326;28;20101;-77
2022/03/15 01:07:49;;;;;;;29.88;14.07;;;11.90;93.00;;;;;;5012250;28;20062;-77
2022/03/15 01:10:15;;;;;;;25.70;13.18;;;11.90;93.10;;;;;;5011864;28;20031;-77
2022/03/15 01:12:40;;;;;;;23.17;12.65;;;11.90;93.10;;;;;;5014596;28;20065;-77
2022/03/15 01:15:07;;;;;;;25.33;13.00;;;11.90;93.10;;;;;;5016494;28;20034;-77
2022/03/15 01:17:34;;;;;;;24.17;13.63;;;11.90;93.10;;;;;;5016518;28;20045;-77
2022/03/15 01:20:00;;;;;;;23.52;12.57;;;11.90;93.10;;;;;;5016760;28;20034;-77
2022/03/15 01:22:26;;;;;;;21.65;13.05;;;11.90;93.10;;;;;;5016321;28;20056;-77
2022/03/15 01:24:51;;;;;;;19.15;12.57;;;11.90;93.10;;;;;;5016464;28;20113;-77
2022/03/15 01:27:19;;;;;;;24.63;13.32;;;11.90;93.10;;;;;;5015471;28;20041;-77
2022/03/15 01:29:45;;;;;;;23.77;14.27;;;11.90;93.10;;;;;;5016768;28;20029;-77
2022/03/15 01:32:10;;;;;;;25.80;15.05;;;12.00;93.20;;;;;;5015593;28;20064;-77
2022/03/15 01:34:36;;;;;;;26.65;15.77;;;12.00;93.20;;;;;;5015877;28;20028;-77
2022/03/15 01:37:02;;;;;;;25.20;15.45;;;11.90;93.20;;;;;;5015782;28;20034;-77
2022/03/15 01:39:28;;;;;;;24.33;15.00;;;11.90;93.20;;;;;;5016395;28;20018;-78
2022/03/15 01:41:54;;;;;;;24.48;14.35;;;11.80;93.20;;;;;;5014923;28;20148;-77
2022/03/15 01:44:22;;;;;;;25.30;15.00;;;11.80;93.30;;;;;;5016139;28;20038;-77
2022/03/15 01:46:49;;;;;;;21.35;13.52;;;11.80;93.30;;;;;;5015391;28;20033;-77
2022/03/15 01:49:15;;;;;;;25.30;14.25;;;11.80;93.30;;;;;;5015977;28;20037;-77
2022/03/15 01:51:42;;;;;;;24.60;14.63;;;11.80;93.30;;;;;;5016211;28;20121;-77
2022/03/15 01:54:10;;;;;;;26.05;14.60;;;11.80;93.30;;;;;;5016554;28;20030;-77
2022/03/15 01:56:41;;;;;;;22.83;13.85;;;11.80;93.40;;;;;;5016157;28;20041;-78
2022/03/15 01:59:11;;;;;;;22.77;14.52;;;11.80;93.50;;;;;;5016172;28;20030;-77
2022/03/15 02:01:39;;;;;;;28.30;15.75;;;11.70;93.40;;;;;;5015961;28;20037;-77
2022/03/15 02:04:06;;;;;;;23.88;15.40;;;11.60;93.60;;;;;;5015285;28;20057;-77
2022/03/15 02:06:35;;;;;;;25.20;17.00;;;11.60;93.80;;;;;;5015082;28;20041;-77
2022/03/15 02:09:07;;;;;;;28.10;16.23;;;11.50;93.90;;;;;;5015390;28;20108;-78
2022/03/15 02:11:34;;;;;;;28.30;15.65;;;11.50;94.00;;;;;;5015820;28;20064;-78
2022/03/15 02:14:00;;;;;;;28.15;16.05;;;11.40;94.00;;;;;;5015783;28;20062;-77
2022/03/15 02:16:26;;;;;;;25.88;16.42;;;11.40;94.20;;;;;;5015990;28;20065;-77
2022/03/15 02:18:52;;;;;;;26.90;16.73;;;11.40;94.20;;;;;;5015268;28;20025;-77
2022/03/15 02:21:18;;;;;;;23.35;15.00;;;11.40;94.30;;;;;;5015320;28;20080;-77
2022/03/15 02:23:43;;;;;;;31.55;17.02;;;11.50;94.30;;;;;;5014368;28;20105;-77
2022/03/15 02:26:13;;;;;;;28.95;17.35;;;11.50;94.20;;;;;;5015155;28;20500;-78
2022/03/15 02:28:43;;;;;;;27.52;16.33;;;11.50;94.10;;;;;;5014446;28;20048;-78
2022/03/15 02:31:08;;;;;;;28.70;15.27;;;11.50;94.00;;;;;;5014926;28;20471;-77
2022/03/15 02:33:34;;;;;;;32.53;16.85;;;11.60;93.90;;;;;;5014006;28;20040;-78
2022/03/15 02:35:59;;;;;;;25.70;16.55;;;11.50;93.90;;;;;;5015139;28;20030;-78
2022/03/15 02:38:25;;;;;;;25.50;15.98;;;11.60;93.90;;;;;;5014184;28;20022;-77
2022/03/15 02:40:50;;;;;;;27.45;16.00;;;11.50;93.90;;;;;;5014770;28;20018;-77
2022/03/15 02:43:16;;;;;;;26.35;15.75;;;11.50;93.90;;;;;;5013317;28;20455;-77
2022/03/15 02:45:42;;;;;;;25.17;15.73;;;11.60;93.90;;;;;;5014859;28;20025;-78
2022/03/15 02:48:07;;;;;;;27.85;16.48;;;11.60;93.80;;;;;;5013601;28;20449;-78
2022/03/15 02:50:36;;;;;;;24.15;16.77;;;11.60;93.70;;;;;;5015135;28;20049;-78
2022/03/15 02:53:01;;;;;;;27.15;16.73;;;11.60;93.70;;;;;;5013398;28;20033;-78
2022/03/15 02:55:27;;;;;;;30.60;17.33;;;11.60;93.60;;;;;;5014624;28;20022;-78
2022/03/15 02:57:53;;;;;;;24.60;15.82;;;11.50;93.60;;;;;;5014724;28;20041;-78
2022/03/15 03:00:20;;;;;;;23.98;16.00;;;11.50;93.60;;;;;;5014086;28;20029;-78
2022/03/15 03:02:46;;;;;;;29.48;17.90;;;11.50;93.50;;;;;;5014415;28;20056;-78
2022/03/15 03:05:12;;;;;;;30.17;18.33;;;11.50;93.60;;;;;;5013928;28;20481;-77
2022/03/15 03:07:38;;;;;;;26.63;16.45;;;11.50;93.60;;;;;;5014854;28;20042;-77
2022/03/15 03:10:05;;;;;;;25.70;16.50;;;11.40;93.60;;;;;;5014309;28;20034;-76
2022/03/15 03:12:31;;;;;;;28.15;17.83;;;11.40;93.60;;;;;;5011405;28;20106;-77
2022/03/15 03:14:57;;;;;;;26.42;17.33;;;11.30;93.50;;;;;;5014445;28;20034;-77
2022/03/15 03:17:24;;;;;;;28.27;16.27;;;11.30;93.60;;;;;;5014901;28;20488;-78
2022/03/15 03:19:50;;;;;;;26.58;16.42;;;11.30;93.70;;;;;;5014739;28;20093;-77
2022/03/15 03:22:15;;;;;;;30.90;16.98;;;11.30;93.70;;;;;;5014307;28;20038;-77
2022/03/15 03:24:42;;;;;;;25.83;16.13;;;11.30;93.70;;;;;;5014125;28;20017;-77
2022/03/15 03:27:13;;;;;;;22.52;16.85;;;11.40;93.60;;;;;;5013717;28;20112;-78
2022/03/15 03:29:41;;;;;;;25.13;16.58;;;11.40;93.50;;;;;;5014461;28;20108;-78
2022/03/15 03:32:07;;;;;;;25.92;16.55;;;11.40;93.40;;;;;;5013621;28;20112;-77
2022/03/15 03:34:32;;;;;;;26.38;16.40;;;11.50;93.50;;;;;;5013423;28;20030;-77
2022/03/15 03:36:58;;;;;;;23.73;16.60;;;11.50;93.30;;;;;;5013472;28;20363;-77
2022/03/15 03:39:24;;;;;;;23.42;15.48;;;11.40;93.30;;;;;;5013495;28;20030;-78
2022/03/15 03:41:49;;;;;;;27.42;16.75;;;11.40;93.30;;;;;;5013101;28;20038;-77
2022/03/15 03:44:15;;;;;;;26.85;17.02;;;11.40;93.30;;;;;;5014024;28;20032;-77
2022/03/15 03:46:40;;;;;;;25.60;16.65;;;11.40;93.20;;;;;;5013008;28;20030;-77
2022/03/15 03:49:06;;;;;;;23.48;16.80;;;11.40;93.20;;;;;;5013591;28;20385;-78
2022/03/15 03:51:31;;;;;;;26.30;16.58;;;11.40;93.20;;;;;;5013465;28;20032;-78
2022/03/15 03:53:57;;;;;;;26.55;16.70;;;11.40;93.20;;;;;;5012658;28;20424;-77
2022/03/15 03:56:22;;;;;;;26.00;16.58;;;11.40;93.20;;;;;;5013669;28;20026;-77
2022/03/15 03:58:48;;;;;;;31.13;16.85;;;11.40;93.30;;;;;;5012430;28;20164;-77
2022/03/15 04:01:14;;;;;;;28.02;16.88;;;11.40;93.20;;;;;;5013316;28;20030;-77
2022/03/15 04:03:39;;;;;;;24.13;16.55;;;11.40;93.20;;;;;;5013219;28;20048;-78
2022/03/15 04:06:10;;;;;;;27.38;17.13;;;11.40;93.20;;;;;;5011962;28;20064;-78
2022/03/15 04:08:35;;;;;;;27.33;17.90;;;11.40;93.10;;;;;;5013773;28;20087;-78
2022/03/15 04:11:01;;;;;;;28.38;17.15;;;11.30;93.20;;;;;;5011897;28;20085;-78
2022/03/15 04:13:26;;;;;;;25.02;16.20;;;11.30;93.30;;;;;;5013115;28;20125;-78
2022/03/15 04:15:53;;;;;;;26.63;16.52;;;11.30;93.30;;;;;;5012498;28;20052;-78
2022/03/15 04:18:18;;;;;;;21.20;15.65;;;11.30;93.20;;;;;;5012754;28;20037;-78
2022/03/15 04:20:44;;;;;;;27.65;16.38;;;11.30;93.20;;;;;;5012484;28;20072;-77
2022/03/15 04:23:10;;;;;;;22.83;15.93;;;11.40;93.20;;;;;;5012784;28;20069;-77
2022/03/15 04:25:36;;;;;;;22.85;16.15;;;11.30;93.10;;;;;;5012659;28;20037;-77
2022/03/15 04:28:02;;;;;;;27.15;15.88;;;11.30;93.10;;;;;;5013705;28;20461;-77
2022/03/15 04:30:28;;;;;;;23.95;15.57;;;11.30;93.10;;;;;;5012118;28;20057;-77
2022/03/15 04:32:54;;;;;;;21.48;14.90;;;11.30;93.00;;;;;;5012866;28;20493;-77
2022/03/15 04:35:20;;;;;;;24.48;14.82;;;11.30;93.00;;;;;;5012776;28;20034;-77
2022/03/15 04:37:51;;;;;;;21.48;13.70;;;11.30;93.00;;;;;;5013630;28;20030;-77
2022/03/15 04:40:17;;;;;;;24.50;14.73;;;11.30;93.00;;;;;;5012672;28;20088;-77
2022/03/15 04:42:43;;;;;;;21.42;14.52;;;11.30;92.90;;;;;;5013122;28;20113;-77
2022/03/15 04:45:10;;;;;;;21.02;14.27;;;11.20;92.90;;;;;;5012617;28;20109;-77
2022/03/15 04:47:39;;;;;;;22.50;14.65;;;11.20;92.90;;;;;;5013026;28;20038;-77
2022/03/15 04:50:05;;;;;;;20.73;13.38;;;11.20;92.90;;;;;;5012099;28;20026;-77
2022/03/15 04:52:31;;;;;;;23.23;13.93;;;11.20;92.80;;;;;;5013078;28;20087;-77
2022/03/15 04:54:56;;;;;;;22.75;13.70;;;11.20;92.80;;;;;;5012952;28;20037;-77
2022/03/15 04:57:22;;;;;;;23.25;13.55;;;11.20;92.80;;;;;;5012633;28;20065;-78
2022/03/15 04:59:47;;;;;;;21.90;13.40;;;11.20;92.80;;;;;;5013092;28;20030;-78
2022/03/15 05:02:13;;;;;;;22.08;13.07;;;11.10;92.70;;;;;;5011920;28;20032;-77
2022/03/15 05:04:38;;;;;;;22.42;13.60;;;11.10;92.80;;;;;;5012571;28;20030;-77
2022/03/15 05:07:04;;;;;;;21.55;13.63;;;11.10;92.80;;;;;;5011540;28;20140;-77
2022/03/15 05:09:30;;;;;;;25.58;13.90;;;11.10;92.80;;;;;;5012153;28;20492;-78
2022/03/15 05:11:55;;;;;;;18.00;12.73;;;11.00;92.70;;;;;;5012425;28;20046;-77
2022/03/15 05:14:21;;;;;;;21.00;12.70;;;10.90;92.70;;;;;;5012364;28;20373;-77
2022/03/15 05:16:46;;;;;;;19.77;12.65;;;10.90;92.80;;;;;;5012577;28;20026;-78
2022/03/15 05:19:12;;;;;;;20.42;13.23;;;10.90;92.80;;;;;;5012109;28;20038;-77
2022/03/15 05:21:38;;;;;;;19.13;11.88;;;10.90;92.70;;;;;;5012181;28;20113;-77
2022/03/15 05:24:04;;;;;;;20.02;12.48;;;10.90;92.70;;;;;;5011512;28;20096;-77
2022/03/15 05:26:30;;;;;;;23.10;12.73;;;11.00;92.70;;;;;;5011483;28;20026;-77
2022/03/15 05:28:55;;;;;;;21.13;12.75;;;11.00;92.60;;;;;;5011348;28;20036;-77
2022/03/15 05:31:26;;;;;;;19.52;12.82;;;11.00;92.60;;;;;;5012134;28;20049;-78
2022/03/15 05:33:55;;;;;;;23.88;13.10;;;11.00;92.60;;;;;;5011698;28;20088;-77
2022/03/15 05:36:21;;;;;;;20.23;12.48;;;11.00;92.50;;;;;;5012170;28;20389;-77
2022/03/15 05:38:47;;;;;;;19.42;12.25;;;11.00;92.50;;;;;;5011905;28;20025;-77
2022/03/15 05:41:15;;;;;;;20.85;12.98;;;11.00;92.50;;;;;;5012030;28;20084;-77
2022/03/15 05:43:41;;;;;;;20.65;12.52;;;10.90;92.40;;;;;;5011036;28;20030;-77
2022/03/15 05:46:06;;;;;;;18.38;12.05;;;11.00;92.60;;;;;;5011699;28;20026;-77
2022/03/15 05:48:33;;;;;;;20.23;11.93;;;10.90;92.60;;;;;;5011930;28;20030;-78
2022/03/15 05:50:59;;;;;;;19.25;11.52;;;10.90;92.60;;;;;;5012885;28;20076;-77
2022/03/15 05:53:24;;;;;;;19.67;12.13;;;10.90;92.60;;;;;;5012107;28;20448;-77
2022/03/15 05:55:50;;;;;;;22.63;11.88;;;10.90;92.60;;;;;;5011662;28;20104;-78
2022/03/15 05:58:15;;;;;;;19.33;11.70;;;10.80;92.60;;;;;;5012995;28;20112;-76
2022/03/15 06:00:42;;;;;;;20.38;11.43;;;10.80;92.60;;;;;;5015279;28;20581;-78
2022/03/15 06:03:10;;;;;;;20.60;12.48;;;10.80;92.60;;;;;;5014523;28;20080;-78
2022/03/15 06:05:37;;;;;;;20.63;12.77;;;10.80;92.70;;;;;;5014692;28;20054;-79
2022/03/15 06:08:03;;;;;;;22.73;13.05;;;10.80;92.70;;;;;;5015100;28;20440;-79
2022/03/15 06:10:28;;;;;;;21.17;11.95;;;10.70;92.80;;;;;;5015301;28;20022;-78
2022/03/15 06:12:55;;;;;;;19.92;11.63;;;10.70;93.00;;;;;;5014006;28;20384;-78
2022/03/15 06:15:21;;;;;;;22.25;11.68;;;10.80;93.10;;;;;;5015445;28;20026;-78
2022/03/15 06:17:56;;;;;;;25.23;13.35;;;10.80;93.00;;;;;;5015305;28;20037;-79
2022/03/15 06:20:22;;;;;;;24.50;13.43;;;10.70;92.80;;;;;;5013921;28;20140;-78
2022/03/15 06:22:48;;;;;;;20.45;13.25;;;10.70;93.10;;;;;;5014920;28;20029;-83
2022/03/15 06:25:14;;;;;;;19.98;11.27;;;10.70;93.10;;;;;;5014783;28;20080;-74
2022/03/15 06:27:40;;;;;;;21.40;14.35;;;10.80;93.60;;;;;;5015204;28;20473;-82
2022/03/15 06:30:08;;;;;;;20.77;11.20;;;10.80;93.80;;;;;;5014434;28;20026;-79
2022/03/15 06:32:34;;;;;;;21.08;12.95;;;10.80;93.70;;;;;;5013625;28;20042;-79
2022/03/15 06:35:06;;;;;;;22.98;12.45;;;10.90;94.30;;;;;;5015275;28;20129;-78
2022/03/15 06:37:32;;;;;;;23.67;9.90;;;10.90;94.10;;;;;;5015385;28;20052;-78
2022/03/15 06:39:57;;;;;;;23.83;14.20;;;11.00;94.40;;;;;;5015233;28;20425;-78
2022/03/15 06:42:23;;;;;;;23.60;13.48;;;11.00;93.90;;;;;;5014863;28;20117;-78
2022/03/15 06:44:50;;;;;;;20.27;13.10;;;11.00;93.80;;;;;;5014381;28;20500;-80
2022/03/15 06:47:16;;;;;;;23.23;13.63;;;11.10;93.60;;;;;;5014294;28;20033;-76
2022/03/15 06:49:41;;;;;;;19.20;12.65;;;11.00;93.20;;;;;;5013680;28;20029;-76
2022/03/15 06:52:09;;;;;;;17.65;11.95;;;10.90;93.00;;;;;;5015378;28;20030;-76
2022/03/15 06:54:37;;;;;;;21.90;12.95;;;10.90;93.10;;;;;;5015567;28;20042;-77
2022/03/15 06:57:03;;;;;;;19.48;12.68;;;11.00;93.10;;;;;;5015110;28;20036;-77
2022/03/15 06:59:29;;;;;;;16.75;12.00;;;10.90;93.00;;;;;;5014065;28;20038;-77
2022/03/15 07:01:54;;;;;;;19.33;12.40;;;11.00;93.20;;;;;;5014378;28;20421;-76
2022/03/15 07:04:20;;;;;;;18.95;11.73;;;10.90;92.70;;;;;;5013185;28;20109;-76
2022/03/15 07:06:45;;;;;;;21.70;11.23;;;10.90;93.00;;;;;;5014130;28;20049;-77
2022/03/15 07:09:11;;;;;;;16.00;10.05;;;10.90;93.00;;;;;;5012489;28;20060;-79
2022/03/15 07:11:38;;;;;;;27.88;11.95;;;11.00;93.40;;;;;;5013544;28;20049;-78
2022/03/15 07:14:04;;;;;;;17.23;11.00;;;11.10;93.40;;;;;;5013308;28;20089;-76
2022/03/15 07:16:29;;;;;;;21.65;11.25;;;11.00;93.20;;;;;;5013554;28;20042;-76
2022/03/15 07:18:56;;;;;;;16.45;11.32;;;11.10;93.40;;;;;;5014587;28;20438;-77
2022/03/15 07:21:21;;;;;;;20.65;11.20;;;11.10;92.90;;;;;;5013693;28;20037;-77
2022/03/15 07:23:47;;;;;;;21.15;11.90;;;11.00;92.70;;;;;;5011897;28;20018;-79
2022/03/15 07:26:12;;;;;;;21.33;11.40;;;10.90;92.70;;;;;;5013859;28;20029;-78
2022/03/15 07:28:38;;;;;;;21.63;11.40;;;10.90;92.70;;;;;;5013495;28;20025;-77
2022/03/15 07:31:04;;;;;;;24.83;12.68;;;10.90;92.80;;;;;;5013538;28;20036;-78
2022/03/15 07:33:30;;;;;;;20.02;12.07;;;10.90;92.90;;;;;;5013701;28;20504;-76
2022/03/15 07:35:56;;;;;;;19.40;11.38;;;10.90;93.00;;;;;;5013542;28;20038;-76
2022/03/15 07:38:21;;;;;;;19.23;11.07;;;10.90;93.00;;;;;;5014365;28;20038;-77
2022/03/15 07:40:49;;;;;;;20.05;12.35;;;10.90;92.80;;;;;;5013597;28;20068;-77
2022/03/15 07:43:14;;;;;;;20.08;11.43;;;10.90;93.00;;;;;;5012854;28;20029;-76
2022/03/15 07:45:40;;;;;;;18.20;11.13;;;10.90;92.90;;;;;;5013353;28;20022;-76
2022/03/15 07:48:06;;;;;;;19.00;10.82;;;11.00;92.90;;;;;;5013038;28;20032;-77
2022/03/15 07:50:33;;;;;;;17.73;10.95;;;11.00;92.70;;;;;;4996464;28;20108;-77
2022/03/15 07:52:58;;;;;;;26.45;11.93;;;11.00;92.80;;;;;;5013750;28;20060;-76
2022/03/15 07:55:24;;;;;;;19.23;10.82;;;11.00;92.60;;;;;;5012235;28;20553;-76
2022/03/15 07:57:50;;;;;;;17.52;10.93;;;10.80;92.60;;;;;;5013555;28;20084;-76
2022/03/15 08:00:17;;;;;;;17.75;10.57;;;10.80;92.90;;;;;;5013767;28;20068;-76
2022/03/15 08:02:43;;;;;;;19.85;11.60;;;10.80;93.00;;;;;;5007479;28;20033;-79
2022/03/15 08:05:09;;;;;;;14.00;10.02;;;10.90;93.10;;;;;;5011804;28;20028;-81
2022/03/15 08:07:36;;;;;;;16.20;10.43;;;10.90;93.00;;;;;;5012160;28;20054;-80
2022/03/15 08:10:07;;;;;;;19.20;9.82;;;11.00;93.10;;;;;;5013157;28;20030;-81
2022/03/15 08:12:34;;;;;;;13.30;9.10;;;11.00;93.20;;;;;;5010593;28;20393;-80
2022/03/15 08:14:59;;;;;;;21.17;10.43;;;11.00;93.10;;;;;;5012628;28;20412;-81
2022/03/15 08:17:25;;;;;;;17.90;10.05;;;11.10;92.90;;;;;;5013616;28;20038;-80
2022/03/15 08:19:51;;;;;;;16.90;9.88;;;11.10;92.70;;;;;;5012326;28;20030;-79
2022/03/15 08:22:17;;;;;;;19.75;10.65;;;11.10;92.60;;;;;;5012894;28;20104;-80
2022/03/15 08:24:42;;;;;;;15.65;10.02;;;11.10;92.40;;;;;;5013404;28;20037;-79
2022/03/15 08:27:08;;;;;;;26.27;10.23;;;11.10;92.50;;;;;;5013284;28;20131;-79
2022/03/15 08:29:34;;;;;;;16.45;9.70;;;11.10;92.40;;;;;;5012986;28;20034;-79
2022/03/15 08:32:00;;;;;;;17.83;10.35;;;11.00;92.40;;;;;;5012394;28;20045;-80
2022/03/15 08:34:25;;;;;;;20.02;9.52;;;11.00;92.40;;;;;;5012188;28;20029;-79
2022/03/15 08:36:53;;;;;;;18.58;10.38;;;11.00;92.40;;;;;;5009955;28;20026;-79
2022/03/15 08:39:21;;;;;;;21.38;11.15;;;11.00;92.40;;;;;;5010551;28;20034;-79
2022/03/15 08:41:51;;;;;;;18.27;9.30;;;11.00;92.50;;;;;;5011929;28;20046;-79
2022/03/15 08:44:18;;;;;;;19.33;8.93;;;10.90;92.60;;;;;;5009862;28;20038;-78
2022/03/15 08:46:48;;;;;;;16.67;9.68;;;11.00;92.70;;;;;;5012066;28;20026;-78
2022/03/15 08:49:15;;;;;;;20.17;9.90;;;11.00;92.50;;;;;;5012043;28;20477;-79
2022/03/15 08:51:42;;;;;;;16.02;9.38;;;10.90;92.60;;;;;;5011304;28;20034;-79
2022/03/15 08:54:08;;;;;;;14.20;9.18;;;10.80;92.80;;;;;;5011146;28;20037;-78
2022/03/15 08:56:35;;;;;;;18.73;8.85;;;10.80;92.90;;;;;;5011440;28;20561;-79
2022/03/15 08:59:01;;;;;;;17.77;8.70;;;10.80;92.90;;;;;;5011401;28;20131;-79
2022/03/15 09:01:27;;;;;;;18.48;9.25;;;10.90;92.80;;;;;;5011477;28;20026;-79
2022/03/15 09:03:52;;;;;;;16.50;9.73;;;10.90;92.70;;;;;;5011917;28;20389;-78
2022/03/15 09:06:18;;;;;;;17.27;8.30;;;10.90;92.70;;;;;;5011206;28;20042;-80
2022/03/15 09:08:44;;;;;;;18.80;9.02;;;11.00;92.60;;;;;;5011343;28;20080;-79
2022/03/15 09:11:09;;;;;;;13.05;8.52;;;10.90;92.20;;;;;;5011668;28;20077;-79
2022/03/15 09:13:35;;;;;;;17.95;8.30;;;10.90;92.40;;;;;;5011585;28;20061;-79
2022/03/15 09:16:01;;;;;;;14.98;8.07;;;11.00;92.50;;;;;;5010192;28;20024;-79
2022/03/15 09:18:27;;;;;;;24.77;9.80;;;11.00;92.40;;;;;;5010637;28;20034;-78
2022/03/15 09:20:55;;;;;;;22.88;8.88;;;11.10;92.30;;;;;;5010503;28;20060;-79
2022/03/15 09:23:21;;;;;;;14.05;8.30;;;11.10;92.40;;;;;;5008755;28;20184;-79
2022/03/15 09:25:49;;;;;;;19.38;9.07;;;11.20;92.40;;;;;;5011724;28;20065;-79
2022/03/15 09:28:16;;;;;;;20.15;9.02;;;11.20;92.30;;;;;;5011858;28;20041;-78
2022/03/15 09:30:44;;;;;;;15.40;8.48;;;11.20;92.30;;;;;;5010331;28;20030;-78
2022/03/15 09:33:09;;;;;;;15.68;8.75;;;11.20;92.30;;;;;;5012255;28;20037;-80
2022/03/15 09:35:35;;;;;;;16.40;9.15;;;11.20;92.30;;;;;;5014708;28;20049;-80
2022/03/15 09:38:02;;;;;;;16.85;8.40;;;11.20;92.20;;;;;;5013651;28;20026;-80
2022/03/15 09:40:28;;;;;;;17.58;8.00;;;11.20;92.20;;;;;;5014488;28;20031;-79
2022/03/15 09:43:03;;;;;;;17.08;9.25;;;11.20;92.00;;;;;;5013365;28;20064;-80
2022/03/15 09:45:31;;;;;;;18.83;8.57;;;11.30;92.10;;;;;;5013411;28;20030;-80
2022/03/15 09:47:59;;;;;;;16.75;8.13;;;11.20;92.20;;;;;;5014464;28;20054;-80
2022/03/15 09:50:25;;;;;;;16.58;8.05;;;11.10;92.40;;;;;;5016608;28;20022;-79
2022/03/15 09:52:56;;;;;;;17.38;7.57;;;11.10;92.60;;;;;;5023520;28;20037;-79
2022/03/15 09:55:23;;;;;;;20.85;8.60;;;11.20;92.60;;;;;;5015980;28;20049;-79
2022/03/15 09:57:48;;;;;;;14.55;8.75;;;11.30;92.30;;;;;;5014343;28;20560;-79
2022/03/15 10:00:16;;;;;;;16.10;9.40;;;11.30;92.20;;;;;;5015707;28;20054;-80
2022/03/15 10:02:46;;;;;;;17.50;9.30;;;11.40;92.10;;;;;;5016558;28;20029;-80
2022/03/15 10:05:12;;;;;;;17.50;8.10;;;11.30;91.90;;;;;;5015836;28;20539;-79
2022/03/15 10:07:38;;;;;;;17.98;8.98;;;11.30;92.40;;;;;;5016093;28;20131;-80
2022/03/15 10:10:06;;;;;;;16.90;8.18;;;11.40;92.30;;;;;;4998462;28;20033;-79
2022/03/15 10:12:34;;;;;;;18.95;8.57;;;11.50;92.20;;;;;;5015831;28;20488;-79
2022/03/15 10:15:11;;;;;;;14.77;7.35;;;11.50;92.00;;;;;;5015268;28;20559;-79
2022/03/15 10:17:45;;;;;;;19.13;7.32;;;11.60;91.90;;;;;;5015557;28;20033;-79
2022/03/15 10:20:13;;;;;;;11.50;7.75;;;11.70;91.60;;;;;;5015901;28;20071;-79
2022/03/15 10:22:50;;;;;;;17.63;6.95;;;11.70;91.50;;;;;;5015784;28;20481;-79
2022/03/15 10:25:16;;;;;;;15.20;7.63;;;11.70;91.30;;;;;;5016192;28;20029;-80
2022/03/15 10:27:48;;;;;;;15.00;7.82;;;11.80;91.40;;;;;;5015848;28;20068;-79
2022/03/15 10:30:14;;;;;;;16.58;7.82;;;11.80;91.20;;;;;;5015907;28;20026;-82
2022/03/15 10:32:40;;;;;;;15.60;7.50;;;11.70;91.50;;;;;;5016046;28;20038;-80
2022/03/15 10:35:09;;;;;;;18.52;7.43;;;11.60;91.60;;;;;;5017473;28;20022;-83
2022/03/15 10:37:37;;;;;;;15.27;7.35;;;11.70;91.60;;;;;;5025564;28;20034;-83
2022/03/15 10:40:03;;;;;;;15.02;7.72;;;11.80;91.50;;;;;;5015681;28;20026;-84
2022/03/15 10:42:29;;;;;;;13.30;7.20;;;11.80;91.20;;;;;;5015629;28;20053;-82
2022/03/15 10:44:57;;;;;;;14.38;7.03;;;11.80;91.20;;;;;;5015865;28;20022;-80
2022/03/15 10:47:23;;;;;;;17.17;7.60;;;11.80;91.20;;;;;;5015649;28;20033;-81
2022/03/15 10:49:56;;;;;;;16.23;7.25;;;11.90;91.00;;;;;;5015257;28;20057;-84
2022/03/15 10:52:33;;;;;;;14.85;7.00;;;11.90;91.00;;;;;;5014627;28;20034;-79
2022/03/15 10:55:24;;;;;;;17.40;7.53;;;12.00;91.00;;;;;;5013991;28;20049;-81
2022/03/15 10:58:02;;;;;;;17.60;7.40;;;12.00;91.00;;;;;;5010116;28;20040;-81
2022/03/15 11:00:33;;;;;;;12.77;6.88;;;12.00;91.10;;;;;;5010715;28;20025;-82
2022/03/15 11:02:58;;;;;;;18.45;7.50;;;12.10;91.00;;;;;;5012755;28;20044;-81
2022/03/15 11:05:43;;;;;;;12.57;6.53;;;12.20;90.90;;;;;;5013673;28;20436;-81
2022/03/15 11:08:11;;;;;;;14.82;6.90;;;12.20;90.80;;;;;;4999535;28;20065;-79
2022/03/15 11:10:38;;;;;;;12.57;6.10;;;12.30;90.70;;;;;;4995045;28;20026;-82
2022/03/15 11:13:08;;;;;;;12.00;6.32;;;12.30;90.60;;;;;;5004873;28;20148;-81
2022/03/15 11:15:48;;;;;;;16.08;6.20;;;12.40;90.70;;;;;;4995822;28;20056;-78
2022/03/15 11:18:16;;;;;;;14.48;6.53;;;12.50;90.60;;;;;;4999829;28;20028;-83
2022/03/15 11:20:44;;;;;;;10.77;5.18;;;12.40;90.40;;;;;;5001760;28;20034;-86
2022/03/15 11:23:14;;;;;;;12.38;5.85;;;12.40;90.30;;;;;;4997428;28;20120;-82
2022/03/15 11:25:45;;;;;;;12.30;5.20;;;12.50;90.20;;;;;;5008430;28;20033;-80
2022/03/15 11:28:19;;;;;;;12.00;5.68;;;12.50;89.90;;;;;;5000573;28;20026;-78
2022/03/15 11:30:45;;;;;;;12.93;6.15;;;12.50;88.90;;;;;;5002747;28;20101;-79
2022/03/15 11:33:12;;;;;;;14.15;5.57;;;12.50;88.10;;;;;;5008765;28;20117;-79
2022/03/15 11:35:39;;;;;;;13.82;5.97;;;12.40;88.10;;;;;;5011486;28;20484;-80
2022/03/15 11:38:09;;;;;;;12.93;5.30;;;12.40;88.60;;;;;;5004334;28;20393;-83
2022/03/15 11:40:35;;;;;;;9.40;5.10;;;12.40;88.00;;;;;;4998122;28;20022;-77
2022/03/15 11:43:00;;;;;;;11.20;5.30;;;12.40;87.90;;;;;;4996808;28;20041;-78
2022/03/15 11:45:38;;;;;;;16.00;6.25;;;12.50;88.50;;;;;;4997467;28;20030;-78
2022/03/15 11:48:07;;;;;;;14.05;5.60;;;12.40;88.10;;;;;;4998103;28;20023;-78
2022/03/15 11:50:40;;;;;;;14.95;5.63;;;12.40;87.90;;;;;;5001507;28;20052;-77
2022/03/15 11:53:30;;;;;;;10.70;5.47;;;12.50;87.50;;;;;;5002554;28;20054;-77
2022/03/15 11:56:10;;;;;;;10.77;4.88;;;12.50;87.80;;;;;;4999996;28;20030;-78
2022/03/15 11:58:35;;;;;;;14.82;6.60;;;12.50;87.40;;;;;;5003046;28;20037;-78
2022/03/15 12:01:12;;;;;;;13.07;6.32;;;12.40;87.20;;;;;;5003010;28;20026;-77
2022/03/15 12:03:54;;;;;;;14.52;6.35;;;12.50;87.20;;;;;;5000782;28;20041;-76
2022/03/15 12:06:24;;;;;;;14.95;6.18;;;12.50;87.10;;;;;;5010399;28;20058;-80
2022/03/15 12:08:52;;;;;;;14.82;6.05;;;12.60;86.70;;;;;;5018756;28;20029;-78
2022/03/15 12:11:35;;;;;;;9.05;4.95;;;12.60;86.60;;;;;;5018586;28;20044;-78
2022/03/15 12:14:09;;;;;;;10.48;5.20;;;12.70;86.40;;;;;;5012602;28;20062;-78
2022/03/15 12:16:43;;;;;;;12.20;4.97;;;12.70;86.30;;;;;;5015416;28;20033;-78
2022/03/15 12:21:54;;;;;;;12.25;5.80;;;12.80;86.20;;;;;;5010935;28;20034;-78
2022/03/15 12:24:32;;;;;;;11.63;5.55;;;12.80;85.90;;;;;;5009092;28;20412;-78
2022/03/15 12:27:04;;;;;;;13.32;5.47;;;12.80;85.50;;;;;;5008492;28;20037;-78
2022/03/15 12:29:31;;;;;;;9.90;4.75;;;12.80;85.50;;;;;;5011426;28;20034;-78
2022/03/15 12:32:09;;;;;;;10.45;4.80;;;12.90;85.40;;;;;;5012097;28;20065;-79
2022/03/15 12:34:40;;;;;;;11.98;5.20;;;12.90;85.30;;;;;;5011896;28;20041;-79